sensor_id;sensor_type;location;lat;lon;timestamp;temperature;humidity
10472;DHT22;5283;48.876;8.962;2023-02-10T00:01:03;-7.10;99.90
10472;DHT22;5283;48.876;8.962;2023-02-10T00:03:31;-6.90;99.90
10472;DHT22;5283;48.876;8.962;2023-02-10T00:05:58;-6.90;99.90
10472;DHT22;5283;48.876;8.962;2023-02-10T00:08:25;-7.10;99.90
10472;DHT22;5283;48.876;8.962;2023-02-10T00:10:55;-7.00;99.90
10472;DHT22;5283;48.876;8.962;2023-02-10T00:13:22;-6.90;99.90
10472;DHT22;5283;48.876;8.962;2023-02-10T00:15:49;-7.00;99.90
10472;DHT22;5283;48.876;8.962;2023-02-10T00:18:16;-7.00;99.90
10472;DHT22;5283;48.876;8.962;2023-02-10T00:20:42;-6.90;99.90
10472;DHT22;5283;48.876;8.962;2023-02-10T00:23:09;-6.80;99.90
10472;DHT22;5283;48.876;8.962;2023-02-10T00:25:36;-6.70;99.90
10472;DHT22;5283;48.876;8.962;2023-02-10T00:28:03;-6.70;99.90
10472;DHT22;5283;48.876;8.962;2023-02-10T00:30:30;-6.60;99.90
10472;DHT22;5283;48.876;8.962;2023-02-10T00:32:57;-6.70;99.90
10472;DHT22;5283;48.876;8.962;2023-02-10T00:35:24;-6.60;99.90
10472;DHT22;5283;48.876;8.962;2023-02-10T00:37:51;-6.50;99.90
10472;DHT22;5283;48.876;8.962;2023-02-10T00:40:17;-6.50;99.90
10472;DHT22;5283;48.876;8.962;2023-02-10T00:42:59;-6.50;99.90
10472;DHT22;5283;48.876;8.962;2023-02-10T00:45:26;-6.50;99.90
10472;DHT22;5283;48.876;8.962;2023-02-10T00:47:53;-6.60;99.90
10472;DHT22;5283;48.876;8.962;2023-02-10T00:50:20;-6.70;99.90
10472;DHT22;5283;48.876;8.962;2023-02-10T00:52:47;-6.70;99.90
10472;DHT22;5283;48.876;8.962;2023-02-10T00:55:13;-6.80;99.90
10472;DHT22;5283;48.876;8.962;2023-02-10T00:57:40;-6.70;99.90
10472;DHT22;5283;48.876;8.962;2023-02-10T01:00:07;-6.80;99.90
10472;DHT22;5283;48.876;8.962;2023-02-10T01:02:34;-6.80;99.90
10472;DHT22;5283;48.876;8.962;2023-02-10T01:05:00;-6.70;99.90
10472;DHT22;5283;48.876;8.962;2023-02-10T01:07:29;-6.50;99.90
10472;DHT22;5283;48.876;8.962;2023-02-10T01:09:56;-6.40;99.90
10472;DHT22;5283;48.876;8.962;2023-02-10T01:12:23;-6.20;99.90
10472;DHT22;5283;48.876;8.962;2023-02-10T01:14:49;-6.00;99.90
10472;DHT22;5283;48.876;8.962;2023-02-10T01:17:16;-6.00;99.90
10472;DHT22;5283;48.876;8.962;2023-02-10T01:19:43;-6.00;99.90
10472;DHT22;5283;48.876;8.962;2023-02-10T01:22:09;-5.90;99.90
10472;DHT22;5283;48.876;8.962;2023-02-10T01:24:36;-5.80;99.90
10472;DHT22;5283;48.876;8.962;2023-02-10T01:27:02;-5.70;99.90
10472;DHT22;5283;48.876;8.962;2023-02-10T01:29:29;-5.80;99.90
10472;DHT22;5283;48.876;8.962;2023-02-10T01:31:56;-5.80;99.90
10472;DHT22;5283;48.876;8.962;2023-02-10T01:34:23;-5.80;99.90
10472;DHT22;5283;48.876;8.962;2023-02-10T01:36:50;-5.70;99.90
10472;DHT22;5283;48.876;8.962;2023-02-10T01:39:16;-5.70;99.90
10472;DHT22;5283;48.876;8.962;2023-02-10T01:41:43;-5.70;99.90
10472;DHT22;5283;48.876;8.962;2023-02-10T01:46:46;-5.60;99.90
10472;DHT22;5283;48.876;8.962;2023-02-10T01:49:19;-5.50;99.90
10472;DHT22;5283;48.876;8.962;2023-02-10T01:52:03;-5.60;99.90
10472;DHT22;5283;48.876;8.962;2023-02-10T01:54:41;-5.80;99.90
10472;DHT22;5283;48.876;8.962;2023-02-10T01:57:10;-6.00;99.90
10472;DHT22;5283;48.876;8.962;2023-02-10T01:59:39;-6.20;99.90
10472;DHT22;5283;48.876;8.962;2023-02-10T02:02:06;-6.30;99.90
10472;DHT22;5283;48.876;8.962;2023-02-10T02:04:50;-6.40;99.90
10472;DHT22;5283;48.876;8.962;2023-02-10T02:07:19;-6.30;99.90
10472;DHT22;5283;48.876;8.962;2023-02-10T02:09:47;-6.20;99.90
10472;DHT22;5283;48.876;8.962;2023-02-10T02:12:36;-6.20;99.90
10472;DHT22;5283;48.876;8.962;2023-02-10T02:15:12;-6.20;99.90
10472;DHT22;5283;48.876;8.962;2023-02-10T02:26:42;-6.50;99.90
10472;DHT22;5283;48.876;8.962;2023-02-10T02:32:19;-6.60;99.90
10472;DHT22;5283;48.876;8.962;2023-02-10T02:34:55;-6.70;99.90
10472;DHT22;5283;48.876;8.962;2023-02-10T02:37:32;-6.60;99.90
10472;DHT22;5283;48.876;8.962;2023-02-10T02:40:00;-6.60;99.90
10472;DHT22;5283;48.876;8.962;2023-02-10T02:42:30;-6.60;99.90
10472;DHT22;5283;48.876;8.962;2023-02-10T02:45:04;-6.60;99.90
10472;DHT22;5283;48.876;8.962;2023-02-10T02:47:40;-6.70;99.90
10472;DHT22;5283;48.876;8.962;2023-02-10T02:53:06;-6.80;99.90
10472;DHT22;5283;48.876;8.962;2023-02-10T03:01:25;-6.70;99.90
10472;DHT22;5283;48.876;8.962;2023-02-10T03:03:57;-6.70;99.90
10472;DHT22;5283;48.876;8.962;2023-02-10T03:06:24;-6.50;99.90
10472;DHT22;5283;48.876;8.962;2023-02-10T03:08:51;-6.40;99.90
10472;DHT22;5283;48.876;8.962;2023-02-10T03:11:18;-6.30;99.90
10472;DHT22;5283;48.876;8.962;2023-02-10T03:13:45;-6.30;99.90
10472;DHT22;5283;48.876;8.962;2023-02-10T03:16:11;-6.30;99.90
10472;DHT22;5283;48.876;8.962;2023-02-10T03:18:38;-6.30;99.90
10472;DHT22;5283;48.876;8.962;2023-02-10T03:21:05;-6.40;99.90
10472;DHT22;5283;48.876;8.962;2023-02-10T03:23:32;-6.50;99.90
10472;DHT22;5283;48.876;8.962;2023-02-10T03:26:00;-6.50;99.90
10472;DHT22;5283;48.876;8.962;2023-02-10T03:28:27;-6.50;99.90
10472;DHT22;5283;48.876;8.962;2023-02-10T03:30:54;-6.50;99.90
10472;DHT22;5283;48.876;8.962;2023-02-10T03:33:22;-6.40;99.90
10472;DHT22;5283;48.876;8.962;2023-02-10T03:35:49;-6.50;99.90
10472;DHT22;5283;48.876;8.962;2023-02-10T03:38:19;-6.60;99.90
10472;DHT22;5283;48.876;8.962;2023-02-10T03:40:49;-6.60;99.90
10472;DHT22;5283;48.876;8.962;2023-02-10T03:43:18;-6.80;99.90
10472;DHT22;5283;48.876;8.962;2023-02-10T03:45:45;-6.90;99.90
10472;DHT22;5283;48.876;8.962;2023-02-10T03:48:13;-7.00;99.90
10472;DHT22;5283;48.876;8.962;2023-02-10T03:50:42;-7.10;99.90
10472;DHT22;5283;48.876;8.962;2023-02-10T03:53:09;-7.10;99.90
10472;DHT22;5283;48.876;8.962;2023-02-10T03:55:36;-7.10;99.90
10472;DHT22;5283;48.876;8.962;2023-02-10T03:58:03;-6.90;99.90
10472;DHT22;5283;48.876;8.962;2023-02-10T04:00:30;-6.80;99.90
10472;DHT22;5283;48.876;8.962;2023-02-10T04:02:57;-6.80;99.90
10472;DHT22;5283;48.876;8.962;2023-02-10T04:05:24;-6.70;99.90
10472;DHT22;5283;48.876;8.962;2023-02-10T04:07:51;-6.60;99.90
10472;DHT22;5283;48.876;8.962;2023-02-10T04:10:18;-6.60;99.90
10472;DHT22;5283;48.876;8.962;2023-02-10T04:12:44;-6.60;99.90
10472;DHT22;5283;48.876;8.962;2023-02-10T04:15:11;-6.60;99.90
10472;DHT22;5283;48.876;8.962;2023-02-10T04:17:38;-6.60;99.90
10472;DHT22;5283;48.876;8.962;2023-02-10T04:20:05;-6.60;99.90
10472;DHT22;5283;48.876;8.962;2023-02-10T04:22:31;-6.70;99.90
10472;DHT22;5283;48.876;8.962;2023-02-10T04:24:58;-6.80;99.90
10472;DHT22;5283;48.876;8.962;2023-02-10T04:27:25;-6.90;99.90
10472;DHT22;5283;48.876;8.962;2023-02-10T04:29:51;-6.90;99.90
10472;DHT22;5283;48.876;8.962;2023-02-10T04:32:18;-7.00;99.90
10472;DHT22;5283;48.876;8.962;2023-02-10T04:34:45;-6.90;99.90
10472;DHT22;5283;48.876;8.962;2023-02-10T04:37:11;-7.00;99.90
10472;DHT22;5283;48.876;8.962;2023-02-10T04:39:38;-7.00;99.90
10472;DHT22;5283;48.876;8.962;2023-02-10T04:42:05;-7.00;99.90
10472;DHT22;5283;48.876;8.962;2023-02-10T04:44:32;-7.00;99.90
10472;DHT22;5283;48.876;8.962;2023-02-10T04:46:59;-7.10;99.90
10472;DHT22;5283;48.876;8.962;2023-02-10T04:49:26;-7.10;99.90
10472;DHT22;5283;48.876;8.962;2023-02-10T04:51:53;-7.20;99.90
10472;DHT22;5283;48.876;8.962;2023-02-10T04:54:20;-7.30;99.90
10472;DHT22;5283;48.876;8.962;2023-02-10T04:56:47;-7.40;99.90
10472;DHT22;5283;48.876;8.962;2023-02-10T04:59:14;-7.30;99.90
10472;DHT22;5283;48.876;8.962;2023-02-10T05:01:41;-7.10;99.90
10472;DHT22;5283;48.876;8.962;2023-02-10T05:04:08;-7.00;99.90
10472;DHT22;5283;48.876;8.962;2023-02-10T05:06:34;-6.90;99.90
10472;DHT22;5283;48.876;8.962;2023-02-10T05:09:01;-6.80;99.90
10472;DHT22;5283;48.876;8.962;2023-02-10T05:11:28;-6.80;99.90
10472;DHT22;5283;48.876;8.962;2023-02-10T05:13:54;-6.80;99.90
10472;DHT22;5283;48.876;8.962;2023-02-10T05:16:21;-6.70;99.90
10472;DHT22;5283;48.876;8.962;2023-02-10T05:18:48;-6.70;99.90
10472;DHT22;5283;48.876;8.962;2023-02-10T05:21:14;-6.70;99.90
10472;DHT22;5283;48.876;8.962;2023-02-10T05:23:42;-6.80;99.90
10472;DHT22;5283;48.876;8.962;2023-02-10T05:26:09;-6.80;99.90
10472;DHT22;5283;48.876;8.962;2023-02-10T05:28:35;-6.80;99.90
10472;DHT22;5283;48.876;8.962;2023-02-10T05:31:02;-6.80;99.90
10472;DHT22;5283;48.876;8.962;2023-02-10T05:33:33;-6.80;99.90
10472;DHT22;5283;48.876;8.962;2023-02-10T05:36:00;-7.00;99.90
10472;DHT22;5283;48.876;8.962;2023-02-10T05:38:27;-7.00;99.90
10472;DHT22;5283;48.876;8.962;2023-02-10T05:40:54;-7.10;99.90
10472;DHT22;5283;48.876;8.962;2023-02-10T05:43:21;-7.20;99.90
10472;DHT22;5283;48.876;8.962;2023-02-10T05:45:47;-7.30;99.90
10472;DHT22;5283;48.876;8.962;2023-02-10T05:48:14;-7.20;99.90
10472;DHT22;5283;48.876;8.962;2023-02-10T05:50:41;-7.20;99.90
10472;DHT22;5283;48.876;8.962;2023-02-10T05:53:08;-7.30;99.90
10472;DHT22;5283;48.876;8.962;2023-02-10T05:55:36;-7.30;99.90
10472;DHT22;5283;48.876;8.962;2023-02-10T05:58:03;-7.40;99.90
10472;DHT22;5283;48.876;8.962;2023-02-10T06:00:30;-7.50;99.90
10472;DHT22;5283;48.876;8.962;2023-02-10T06:02:57;-7.60;99.90
10472;DHT22;5283;48.876;8.962;2023-02-10T06:05:24;-7.70;99.90
10472;DHT22;5283;48.876;8.962;2023-02-10T06:07:50;-7.80;99.90
10472;DHT22;5283;48.876;8.962;2023-02-10T06:10:17;-7.90;99.90
10472;DHT22;5283;48.876;8.962;2023-02-10T06:12:44;-8.10;99.90
10472;DHT22;5283;48.876;8.962;2023-02-10T06:15:10;-8.10;99.90
10472;DHT22;5283;48.876;8.962;2023-02-10T06:17:37;-8.20;99.90
10472;DHT22;5283;48.876;8.962;2023-02-10T06:20:05;-8.20;99.90
10472;DHT22;5283;48.876;8.962;2023-02-10T06:22:32;-8.20;99.90
10472;DHT22;5283;48.876;8.962;2023-02-10T06:24:58;-8.30;99.90
10472;DHT22;5283;48.876;8.962;2023-02-10T06:27:25;-8.30;99.90
10472;DHT22;5283;48.876;8.962;2023-02-10T06:29:52;-8.30;99.90
10472;DHT22;5283;48.876;8.962;2023-02-10T06:32:18;-8.40;99.90
10472;DHT22;5283;48.876;8.962;2023-02-10T06:34:45;-8.40;99.90
10472;DHT22;5283;48.876;8.962;2023-02-10T06:37:12;-8.40;99.90
10472;DHT22;5283;48.876;8.962;2023-02-10T06:39:38;-8.30;99.90
10472;DHT22;5283;48.876;8.962;2023-02-10T06:42:06;-8.40;99.90
10472;DHT22;5283;48.876;8.962;2023-02-10T06:44:33;-8.30;99.90
10472;DHT22;5283;48.876;8.962;2023-02-10T06:47:00;-8.30;99.90
10472;DHT22;5283;48.876;8.962;2023-02-10T06:49:26;-8.30;99.90
10472;DHT22;5283;48.876;8.962;2023-02-10T06:51:53;-8.30;99.90
10472;DHT22;5283;48.876;8.962;2023-02-10T06:54:21;-8.30;99.90
10472;DHT22;5283;48.876;8.962;2023-02-10T06:56:49;-8.30;99.90
10472;DHT22;5283;48.876;8.962;2023-02-10T06:59:16;-8.20;99.90
10472;DHT22;5283;48.876;8.962;2023-02-10T07:01:43;-8.00;99.90
10472;DHT22;5283;48.876;8.962;2023-02-10T07:04:10;-7.90;99.90
10472;DHT22;5283;48.876;8.962;2023-02-10T07:06:37;-8.00;99.90
10472;DHT22;5283;48.876;8.962;2023-02-10T07:09:05;-7.80;99.90
10472;DHT22;5283;48.876;8.962;2023-02-10T07:11:33;-7.80;99.90
10472;DHT22;5283;48.876;8.962;2023-02-10T07:13:59;-7.80;99.90
10472;DHT22;5283;48.876;8.962;2023-02-10T07:16:26;-7.70;99.90
10472;DHT22;5283;48.876;8.962;2023-02-10T07:18:54;-7.50;99.90
10472;DHT22;5283;48.876;8.962;2023-02-10T07:21:21;-7.30;99.90
10472;DHT22;5283;48.876;8.962;2023-02-10T07:23:48;-7.30;99.90
10472;DHT22;5283;48.876;8.962;2023-02-10T07:26:14;-7.10;99.90
10472;DHT22;5283;48.876;8.962;2023-02-10T07:28:44;-6.90;99.90
10472;DHT22;5283;48.876;8.962;2023-02-10T07:31:11;-6.80;99.90
10472;DHT22;5283;48.876;8.962;2023-02-10T07:33:38;-6.60;99.90
10472;DHT22;5283;48.876;8.962;2023-02-10T07:36:06;-6.40;99.90
10472;DHT22;5283;48.876;8.962;2023-02-10T07:38:33;-6.30;99.90
10472;DHT22;5283;48.876;8.962;2023-02-10T07:40:59;-6.20;99.90
10472;DHT22;5283;48.876;8.962;2023-02-10T07:43:26;-6.00;99.90
10472;DHT22;5283;48.876;8.962;2023-02-10T07:45:53;-6.00;99.90
10472;DHT22;5283;48.876;8.962;2023-02-10T07:48:20;-5.90;99.90
10472;DHT22;5283;48.876;8.962;2023-02-10T07:50:47;-5.80;99.90
10472;DHT22;5283;48.876;8.962;2023-02-10T07:53:13;-5.70;99.90
10472;DHT22;5283;48.876;8.962;2023-02-10T07:55:40;-5.70;99.90
10472;DHT22;5283;48.876;8.962;2023-02-10T07:58:07;-5.60;99.90
10472;DHT22;5283;48.876;8.962;2023-02-10T08:00:34;-5.50;99.90
10472;DHT22;5283;48.876;8.962;2023-02-10T08:03:01;-5.50;99.90
10472;DHT22;5283;48.876;8.962;2023-02-10T08:05:27;-5.40;99.90
10472;DHT22;5283;48.876;8.962;2023-02-10T08:07:55;-5.30;99.90
10472;DHT22;5283;48.876;8.962;2023-02-10T08:10:22;-5.20;99.90
10472;DHT22;5283;48.876;8.962;2023-02-10T08:12:49;-5.00;99.90
10472;DHT22;5283;48.876;8.962;2023-02-10T08:15:16;-4.90;99.90
10472;DHT22;5283;48.876;8.962;2023-02-10T08:17:44;-4.90;99.90
10472;DHT22;5283;48.876;8.962;2023-02-10T08:20:11;-4.80;99.90
10472;DHT22;5283;48.876;8.962;2023-02-10T08:22:38;-4.60;99.90
10472;DHT22;5283;48.876;8.962;2023-02-10T08:25:05;-4.50;99.90
10472;DHT22;5283;48.876;8.962;2023-02-10T08:27:32;-4.40;99.90
10472;DHT22;5283;48.876;8.962;2023-02-10T08:29:58;-4.30;99.90
10472;DHT22;5283;48.876;8.962;2023-02-10T08:32:25;-4.20;99.90
10472;DHT22;5283;48.876;8.962;2023-02-10T08:34:52;-4.10;99.90
10472;DHT22;5283;48.876;8.962;2023-02-10T08:37:19;-4.00;99.90
10472;DHT22;5283;48.876;8.962;2023-02-10T08:39:46;-3.90;99.90
10472;DHT22;5283;48.876;8.962;2023-02-10T08:42:12;-3.80;99.90
10472;DHT22;5283;48.876;8.962;2023-02-10T08:44:39;-3.70;99.90
10472;DHT22;5283;48.876;8.962;2023-02-10T08:47:06;-3.60;99.90
10472;DHT22;5283;48.876;8.962;2023-02-10T08:49:35;-3.50;99.90
10472;DHT22;5283;48.876;8.962;2023-02-10T08:52:01;-3.40;99.90
10472;DHT22;5283;48.876;8.962;2023-02-10T08:54:28;-3.20;99.90
10472;DHT22;5283;48.876;8.962;2023-02-10T08:56:55;-3.10;99.90
10472;DHT22;5283;48.876;8.962;2023-02-10T08:59:22;-3.00;99.90
10472;DHT22;5283;48.876;8.962;2023-02-10T09:01:49;-2.80;99.90
10472;DHT22;5283;48.876;8.962;2023-02-10T09:04:16;-2.70;99.90
10472;DHT22;5283;48.876;8.962;2023-02-10T09:06:43;-2.60;99.90
10472;DHT22;5283;48.876;8.962;2023-02-10T09:09:15;-2.50;99.90
10472;DHT22;5283;48.876;8.962;2023-02-10T09:11:46;-2.40;99.90
10472;DHT22;5283;48.876;8.962;2023-02-10T09:14:13;-2.20;99.90
10472;DHT22;5283;48.876;8.962;2023-02-10T09:16:39;-2.00;99.90
10472;DHT22;5283;48.876;8.962;2023-02-10T09:19:06;-1.80;99.90
10472;DHT22;5283;48.876;8.962;2023-02-10T09:21:33;-1.60;99.90
10472;DHT22;5283;48.876;8.962;2023-02-10T09:24:11;-1.50;99.90
10472;DHT22;5283;48.876;8.962;2023-02-10T09:26:38;-1.30;99.90
10472;DHT22;5283;48.876;8.962;2023-02-10T09:29:05;-1.10;99.90
10472;DHT22;5283;48.876;8.962;2023-02-10T09:31:32;-1.00;99.90
10472;DHT22;5283;48.876;8.962;2023-02-10T09:34:00;-0.80;99.90
10472;DHT22;5283;48.876;8.962;2023-02-10T09:36:26;-0.70;99.90
10472;DHT22;5283;48.876;8.962;2023-02-10T09:38:55;-0.60;99.90
10472;DHT22;5283;48.876;8.962;2023-02-10T09:47:21;-0.30;99.90
10472;DHT22;5283;48.876;8.962;2023-02-10T09:55:39;0.10;99.90
10472;DHT22;5283;48.876;8.962;2023-02-10T09:58:30;0.20;99.90
10472;DHT22;5283;48.876;8.962;2023-02-10T10:01:03;0.40;99.90
10472;DHT22;5283;48.876;8.962;2023-02-10T10:03:41;0.60;99.90
10472;DHT22;5283;48.876;8.962;2023-02-10T10:11:31;1.10;99.90
10472;DHT22;5283;48.876;8.962;2023-02-10T10:13:59;1.30;99.90
10472;DHT22;5283;48.876;8.962;2023-02-10T10:16:48;1.30;99.90
10472;DHT22;5283;48.876;8.962;2023-02-10T10:19:36;1.50;99.90
10472;DHT22;5283;48.876;8.962;2023-02-10T10:22:46;1.60;99.90
10472;DHT22;5283;48.876;8.962;2023-02-10T10:31:14;2.00;99.90
10472;DHT22;5283;48.876;8.962;2023-02-10T10:33:56;2.10;99.90
10472;DHT22;5283;48.876;8.962;2023-02-10T10:36:40;2.10;99.90
10472;DHT22;5283;48.876;8.962;2023-02-10T10:39:36;2.20;99.90
10472;DHT22;5283;48.876;8.962;2023-02-10T10:42:26;2.20;99.90
10472;DHT22;5283;48.876;8.962;2023-02-10T10:45:23;2.20;99.90
10472;DHT22;5283;48.876;8.962;2023-02-10T10:47:59;2.20;99.90
10472;DHT22;5283;48.876;8.962;2023-02-10T10:50:27;2.30;99.90
10472;DHT22;5283;48.876;8.962;2023-02-10T10:52:56;2.30;99.90
10472;DHT22;5283;48.876;8.962;2023-02-10T10:55:42;2.40;99.90
10472;DHT22;5283;48.876;8.962;2023-02-10T10:58:30;2.40;99.90
10472;DHT22;5283;48.876;8.962;2023-02-10T11:00:59;2.40;99.90
10472;DHT22;5283;48.876;8.962;2023-02-10T11:03:28;2.60;99.90
10472;DHT22;5283;48.876;8.962;2023-02-10T11:06:10;2.70;99.90
10472;DHT22;5283;48.876;8.962;2023-02-10T11:08:44;2.80;99.90
10472;DHT22;5283;48.876;8.962;2023-02-10T11:11:14;2.90;99.90
10472;DHT22;5283;48.876;8.962;2023-02-10T11:13:57;3.00;99.90
10472;DHT22;5283;48.876;8.962;2023-02-10T11:16:24;3.00;99.90
10472;DHT22;5283;48.876;8.962;2023-02-10T11:18:59;3.10;99.90
10472;DHT22;5283;48.876;8.962;2023-02-10T11:21:39;3.20;99.90
10472;DHT22;5283;48.876;8.962;2023-02-10T11:24:28;3.30;99.90
10472;DHT22;5283;48.876;8.962;2023-02-10T11:27:04;3.30;99.90
10472;DHT22;5283;48.876;8.962;2023-02-10T11:29:34;3.30;99.90
10472;DHT22;5283;48.876;8.962;2023-02-10T11:32:01;3.30;99.90
10472;DHT22;5283;48.876;8.962;2023-02-10T11:34:42;3.40;99.90
10472;DHT22;5283;48.876;8.962;2023-02-10T11:37:23;3.30;99.90
10472;DHT22;5283;48.876;8.962;2023-02-10T11:39:51;3.40;99.90
10472;DHT22;5283;48.876;8.962;2023-02-10T11:42:24;3.40;99.90
10472;DHT22;5283;48.876;8.962;2023-02-10T11:47:37;3.50;99.90
10472;DHT22;5283;48.876;8.962;2023-02-10T11:50:04;3.50;99.90
10472;DHT22;5283;48.876;8.962;2023-02-10T11:52:44;3.60;99.90
10472;DHT22;5283;48.876;8.962;2023-02-10T11:55:15;3.60;99.90
10472;DHT22;5283;48.876;8.962;2023-02-10T11:57:55;3.70;99.90
10472;DHT22;5283;48.876;8.962;2023-02-10T12:00:54;3.70;99.90
10472;DHT22;5283;48.876;8.962;2023-02-10T12:06:20;3.80;99.90
10472;DHT22;5283;48.876;8.962;2023-02-10T12:11:52;3.90;99.90
10472;DHT22;5283;48.876;8.962;2023-02-10T12:20:38;4.00;99.90
10472;DHT22;5283;48.876;8.962;2023-02-10T12:32:02;4.20;99.90
10472;DHT22;5283;48.876;8.962;2023-02-10T12:48:56;4.40;99.90
10472;DHT22;5283;48.876;8.962;2023-02-10T12:51:48;4.40;99.90
10472;DHT22;5283;48.876;8.962;2023-02-10T12:54:28;4.40;99.90
10472;DHT22;5283;48.876;8.962;2023-02-10T12:57:26;4.50;99.90
10472;DHT22;5283;48.876;8.962;2023-02-10T13:02:31;4.60;99.90
10472;DHT22;5283;48.876;8.962;2023-02-10T13:05:03;4.60;99.90
10472;DHT22;5283;48.876;8.962;2023-02-10T13:07:49;4.70;99.90
10472;DHT22;5283;48.876;8.962;2023-02-10T13:10:24;4.70;99.90
10472;DHT22;5283;48.876;8.962;2023-02-10T13:12:54;4.80;99.90
10472;DHT22;5283;48.876;8.962;2023-02-10T13:15:28;4.80;99.90
10472;DHT22;5283;48.876;8.962;2023-02-10T13:17:56;4.90;99.90
10472;DHT22;5283;48.876;8.962;2023-02-10T13:21:00;5.00;99.90
10472;DHT22;5283;48.876;8.962;2023-02-10T13:23:47;5.00;99.90
10472;DHT22;5283;48.876;8.962;2023-02-10T13:31:59;5.20;99.90
10472;DHT22;5283;48.876;8.962;2023-02-10T13:34:29;5.30;99.90
10472;DHT22;5283;48.876;8.962;2023-02-10T13:39:30;5.40;99.90
10472;DHT22;5283;48.876;8.962;2023-02-10T13:42:15;5.40;99.90
10472;DHT22;5283;48.876;8.962;2023-02-10T13:44:44;5.40;99.90
10472;DHT22;5283;48.876;8.962;2023-02-10T13:47:26;5.50;99.90
10472;DHT22;5283;48.876;8.962;2023-02-10T13:49:55;5.60;99.90
10472;DHT22;5283;48.876;8.962;2023-02-10T13:52:25;5.80;99.90
10472;DHT22;5283;48.876;8.962;2023-02-10T13:54:56;6.20;99.90
10472;DHT22;5283;48.876;8.962;2023-02-10T13:57:51;6.40;99.90
10472;DHT22;5283;48.876;8.962;2023-02-10T14:00:20;6.50;99.90
10472;DHT22;5283;48.876;8.962;2023-02-10T14:03:18;6.70;99.90
10472;DHT22;5283;48.876;8.962;2023-02-10T14:05:55;6.80;99.90
10472;DHT22;5283;48.876;8.962;2023-02-10T14:08:40;6.80;99.90
10472;DHT22;5283;48.876;8.962;2023-02-10T14:11:42;7.00;99.90
10472;DHT22;5283;48.876;8.962;2023-02-10T14:14:19;7.10;99.90
10472;DHT22;5283;48.876;8.962;2023-02-10T14:16:49;7.10;99.90
10472;DHT22;5283;48.876;8.962;2023-02-10T14:19:23;6.90;99.90
10472;DHT22;5283;48.876;8.962;2023-02-10T14:21:51;6.90;99.90
10472;DHT22;5283;48.876;8.962;2023-02-10T14:24:25;6.80;99.90
10472;DHT22;5283;48.876;8.962;2023-02-10T14:27:00;6.90;99.90
10472;DHT22;5283;48.876;8.962;2023-02-10T14:29:30;7.10;99.90
10472;DHT22;5283;48.876;8.962;2023-02-10T14:32:00;7.30;99.90
10472;DHT22;5283;48.876;8.962;2023-02-10T14:34:30;7.50;99.90
10472;DHT22;5283;48.876;8.962;2023-02-10T14:39:26;7.60;99.90
10472;DHT22;5283;48.876;8.962;2023-02-10T14:42:03;7.50;99.90
10472;DHT22;5283;48.876;8.962;2023-02-10T14:44:39;7.60;99.90
10472;DHT22;5283;48.876;8.962;2023-02-10T14:47:18;7.60;99.90
10472;DHT22;5283;48.876;8.962;2023-02-10T14:49:52;7.60;99.90
10472;DHT22;5283;48.876;8.962;2023-02-10T14:52:29;7.60;99.90
10472;DHT22;5283;48.876;8.962;2023-02-10T14:55:22;7.30;99.90
10472;DHT22;5283;48.876;8.962;2023-02-10T14:57:49;6.90;99.90
10472;DHT22;5283;48.876;8.962;2023-02-10T15:00:16;6.80;99.90
10472;DHT22;5283;48.876;8.962;2023-02-10T15:02:49;6.70;99.90
10472;DHT22;5283;48.876;8.962;2023-02-10T15:05:19;6.60;99.90
10472;DHT22;5283;48.876;8.962;2023-02-10T15:07:50;6.60;99.90
10472;DHT22;5283;48.876;8.962;2023-02-10T15:10:34;6.60;99.90
10472;DHT22;5283;48.876;8.962;2023-02-10T15:13:02;6.50;99.90
10472;DHT22;5283;48.876;8.962;2023-02-10T15:15:37;6.40;99.90
10472;DHT22;5283;48.876;8.962;2023-02-10T15:20:51;6.10;99.90
10472;DHT22;5283;48.876;8.962;2023-02-10T15:23:18;6.00;99.90
10472;DHT22;5283;48.876;8.962;2023-02-10T15:26:27;5.80;99.90
10472;DHT22;5283;48.876;8.962;2023-02-10T15:29:08;5.60;99.90
10472;DHT22;5283;48.876;8.962;2023-02-10T15:31:35;5.40;99.90
10472;DHT22;5283;48.876;8.962;2023-02-10T15:34:24;5.30;99.90
10472;DHT22;5283;48.876;8.962;2023-02-10T15:36:59;5.10;99.90
10472;DHT22;5283;48.876;8.962;2023-02-10T15:39:30;4.50;99.90
10472;DHT22;5283;48.876;8.962;2023-02-10T15:42:01;3.90;99.90
10472;DHT22;5283;48.876;8.962;2023-02-10T15:44:31;3.30;99.90
10472;DHT22;5283;48.876;8.962;2023-02-10T15:47:21;2.80;99.90
10472;DHT22;5283;48.876;8.962;2023-02-10T15:49:57;2.50;99.90
10472;DHT22;5283;48.876;8.962;2023-02-10T15:54:59;2.20;99.90
10472;DHT22;5283;48.876;8.962;2023-02-10T15:57:27;2.40;99.90
10472;DHT22;5283;48.876;8.962;2023-02-10T15:59:54;2.60;99.90
10472;DHT22;5283;48.876;8.962;2023-02-10T16:02:21;2.50;99.90
10472;DHT22;5283;48.876;8.962;2023-02-10T16:04:52;2.40;99.90
10472;DHT22;5283;48.876;8.962;2023-02-10T16:07:24;2.20;99.90
10472;DHT22;5283;48.876;8.962;2023-02-10T16:09:54;2.00;99.90
10472;DHT22;5283;48.876;8.962;2023-02-10T16:12:22;1.70;99.90
10472;DHT22;5283;48.876;8.962;2023-02-10T16:14:48;1.30;99.90
10472;DHT22;5283;48.876;8.962;2023-02-10T16:17:23;1.20;99.90
10472;DHT22;5283;48.876;8.962;2023-02-10T16:19:50;1.00;99.90
10472;DHT22;5283;48.876;8.962;2023-02-10T16:22:18;0.90;99.90
10472;DHT22;5283;48.876;8.962;2023-02-10T16:24:45;0.70;99.90
10472;DHT22;5283;48.876;8.962;2023-02-10T16:27:12;0.50;99.90
10472;DHT22;5283;48.876;8.962;2023-02-10T16:29:39;0.40;99.90
10472;DHT22;5283;48.876;8.962;2023-02-10T16:32:06;0.30;99.90
10472;DHT22;5283;48.876;8.962;2023-02-10T16:34:33;0.10;99.90
10472;DHT22;5283;48.876;8.962;2023-02-10T16:37:00;-0.10;99.90
10472;DHT22;5283;48.876;8.962;2023-02-10T16:39:27;-0.10;99.90
10472;DHT22;5283;48.876;8.962;2023-02-10T16:41:54;-0.20;99.90
10472;DHT22;5283;48.876;8.962;2023-02-10T16:44:22;-0.30;99.90
10472;DHT22;5283;48.876;8.962;2023-02-10T16:46:49;-0.30;99.90
10472;DHT22;5283;48.876;8.962;2023-02-10T16:49:17;-0.50;99.90
10472;DHT22;5283;48.876;8.962;2023-02-10T16:51:45;-0.50;99.90
10472;DHT22;5283;48.876;8.962;2023-02-10T16:54:12;-0.60;99.90
10472;DHT22;5283;48.876;8.962;2023-02-10T16:56:40;-0.70;99.90
10472;DHT22;5283;48.876;8.962;2023-02-10T16:59:09;-0.70;99.90
10472;DHT22;5283;48.876;8.962;2023-02-10T17:01:37;-0.70;99.90
10472;DHT22;5283;48.876;8.962;2023-02-10T17:04:04;-0.70;99.90
10472;DHT22;5283;48.876;8.962;2023-02-10T17:06:33;-0.80;99.90
10472;DHT22;5283;48.876;8.962;2023-02-10T17:09:02;-0.90;99.90
10472;DHT22;5283;48.876;8.962;2023-02-10T17:11:29;-1.00;99.90
10472;DHT22;5283;48.876;8.962;2023-02-10T17:13:55;-1.10;99.90
10472;DHT22;5283;48.876;8.962;2023-02-10T17:16:34;-1.20;99.90
10472;DHT22;5283;48.876;8.962;2023-02-10T17:19:02;-1.30;99.90
10472;DHT22;5283;48.876;8.962;2023-02-10T17:21:29;-1.30;99.90
10472;DHT22;5283;48.876;8.962;2023-02-10T17:23:56;-1.30;99.90
10472;DHT22;5283;48.876;8.962;2023-02-10T17:26:22;-1.40;99.90
10472;DHT22;5283;48.876;8.962;2023-02-10T17:28:49;-1.40;99.90
10472;DHT22;5283;48.876;8.962;2023-02-10T17:31:20;-1.40;99.90
10472;DHT22;5283;48.876;8.962;2023-02-10T17:33:47;-1.40;99.90
10472;DHT22;5283;48.876;8.962;2023-02-10T17:36:26;-1.50;99.90
10472;DHT22;5283;48.876;8.962;2023-02-10T17:38:53;-1.50;99.90
10472;DHT22;5283;48.876;8.962;2023-02-10T17:41:27;-1.60;99.90
10472;DHT22;5283;48.876;8.962;2023-02-10T17:43:56;-1.70;99.90
10472;DHT22;5283;48.876;8.962;2023-02-10T17:46:24;-1.60;99.90
10472;DHT22;5283;48.876;8.962;2023-02-10T17:48:51;-1.60;99.90
10472;DHT22;5283;48.876;8.962;2023-02-10T17:51:21;-1.60;99.90
10472;DHT22;5283;48.876;8.962;2023-02-10T17:53:50;-1.60;99.90
10472;DHT22;5283;48.876;8.962;2023-02-10T17:56:18;-1.70;99.90